createdAt,value
2023-01-20T00:01:25.555Z,2.53
2023-01-20T00:03:54.580Z,2.73
2023-01-20T00:06:23.141Z,2.77
2023-01-20T00:08:54.903Z,2.30
2023-01-20T00:11:23.484Z,2.60
2023-01-20T00:13:56.721Z,2.67
2023-01-20T00:16:25.685Z,2.97
2023-01-20T00:18:54.351Z,2.97
2023-01-20T00:21:25.433Z,3.10
2023-01-20T00:23:53.319Z,2.67
2023-01-20T00:26:23.693Z,3.20
2023-01-20T00:28:56.066Z,3.23
2023-01-20T00:31:25.601Z,3.40
2023-01-20T00:33:55.972Z,3.60
2023-01-20T00:36:24.897Z,3.53
2023-01-20T00:38:53.155Z,4.27
2023-01-20T00:41:22.959Z,3.70
2023-01-20T00:43:51.235Z,4.57
2023-01-20T00:46:22.940Z,4.83
2023-01-20T00:48:51.130Z,5.00
2023-01-20T00:51:18.951Z,5.37
2023-01-20T00:53:46.858Z,5.53
2023-01-20T00:56:14.777Z,5.70
2023-01-20T00:58:44.987Z,6.57
2023-01-20T01:01:13.588Z,6.20
2023-01-20T01:03:42.875Z,7.33
2023-01-20T01:06:12.592Z,7.03
2023-01-20T01:08:41.847Z,8.13
2023-01-20T01:11:10.147Z,7.93
2023-01-20T01:13:39.180Z,8.13
2023-01-20T01:16:11.614Z,8.90
2023-01-20T01:18:39.612Z,8.73
2023-01-20T01:31:55.105Z,9.27
2023-01-20T01:34:23.406Z,7.67
2023-01-20T01:36:51.768Z,8.37
2023-01-20T01:39:19.682Z,8.40
2023-01-20T01:41:49.735Z,8.83
2023-01-20T01:44:18.142Z,8.40
2023-01-20T01:46:45.965Z,9.27
2023-01-20T01:49:18.994Z,8.63
2023-01-20T01:51:51.824Z,8.50
2023-01-20T01:54:24.164Z,8.60
2023-01-20T01:56:53.401Z,10.20
2023-01-20T01:59:22.641Z,9.70
2023-01-20T02:01:53.072Z,9.90
2023-01-20T02:04:25.615Z,10.63
2023-01-20T02:06:56.365Z,11.80
2023-01-20T02:09:25.402Z,10.67
2023-01-20T02:11:55.636Z,11.50
2023-01-20T02:14:27.897Z,12.17
2023-01-20T02:17:04.050Z,11.43
2023-01-20T02:20:09.547Z,13.30
2023-01-20T02:22:43.879Z,12.93
2023-01-20T02:25:47.912Z,13.63
2023-01-20T02:28:48.694Z,13.40
2023-01-20T02:31:54.504Z,13.80
2023-01-20T02:34:27.768Z,14.57
2023-01-20T02:36:58.093Z,13.53
2023-01-20T02:39:31.824Z,14.97
2023-01-20T02:42:04.029Z,13.70
2023-01-20T02:44:40.536Z,13.43
2023-01-20T02:47:16.070Z,13.67
2023-01-20T02:49:52.425Z,14.93
2023-01-20T02:52:24.798Z,17.37
2023-01-20T02:54:57.183Z,17.63
2023-01-20T02:57:30.231Z,17.67
2023-01-20T03:00:05.308Z,17.57
2023-01-20T03:02:37.691Z,17.13
2023-01-20T03:05:08.161Z,17.77
2023-01-20T03:07:38.142Z,16.77
2023-01-20T03:10:10.658Z,17.47
2023-01-20T03:12:43.233Z,17.33
2023-01-20T03:15:13.038Z,17.77
2023-01-20T03:17:42.617Z,19.10
2023-01-20T03:20:11.817Z,21.27
2023-01-20T03:22:39.919Z,20.13
2023-01-20T03:25:09.562Z,20.50
2023-01-20T03:27:37.785Z,18.87
2023-01-20T03:30:07.883Z,19.67
2023-01-20T03:32:35.747Z,18.90
2023-01-20T03:35:05.540Z,17.37
2023-01-20T03:37:33.395Z,18.37
2023-01-20T03:40:01.807Z,19.00
2023-01-20T03:42:32.641Z,20.17
2023-01-20T03:45:10.407Z,19.80
2023-01-20T03:47:52.201Z,18.57
2023-01-20T03:50:32.676Z,18.23
2023-01-20T03:53:06.584Z,18.90
2023-01-20T03:55:39.391Z,17.97
2023-01-20T03:58:11.196Z,19.03
2023-01-20T04:00:43.224Z,16.87
2023-01-20T04:03:16.257Z,19.03
2023-01-20T04:05:47.826Z,19.40
2023-01-20T04:08:19.135Z,17.87
2023-01-20T04:10:51.780Z,18.43
2023-01-20T04:13:20.112Z,17.43
2023-01-20T04:15:48.076Z,19.20
2023-01-20T04:18:17.781Z,17.90
2023-01-20T04:20:50.587Z,18.07
2023-01-20T04:23:24.567Z,19.00
2023-01-20T04:25:52.544Z,19.33
2023-01-20T04:28:20.615Z,19.43
2023-01-20T04:30:49.664Z,18.90
2023-01-20T04:33:17.678Z,18.00
2023-01-20T04:35:46.906Z,18.67
2023-01-20T04:38:15.082Z,18.17
2023-01-20T04:40:42.971Z,16.60
2023-01-20T04:43:12.076Z,18.97
2023-01-20T04:45:41.584Z,17.33
2023-01-20T04:48:10.488Z,17.77
2023-01-20T04:50:39.465Z,18.20
2023-01-20T04:53:12.131Z,18.20
2023-01-20T04:55:40.002Z,17.67
2023-01-20T04:58:07.786Z,17.83
2023-01-20T05:00:35.637Z,17.97
2023-01-20T05:03:03.487Z,18.10
2023-01-20T05:05:31.398Z,18.73
2023-01-20T05:07:59.691Z,19.13
2023-01-20T05:10:28.920Z,19.80
2023-01-20T05:12:59.608Z,19.80
2023-01-20T05:15:27.794Z,18.50
2023-01-20T05:17:55.632Z,20.33
2023-01-20T05:20:23.614Z,19.63
2023-01-20T05:22:51.944Z,20.07
2023-01-20T05:25:19.730Z,21.60
2023-01-20T05:27:51.647Z,19.83
2023-01-20T05:30:19.990Z,21.20
2023-01-20T05:32:50.795Z,21.13
2023-01-20T05:35:18.924Z,19.97
2023-01-20T05:37:46.744Z,19.90
2023-01-20T05:40:15.046Z,20.60
2023-01-20T05:42:42.884Z,22.23
2023-01-20T05:45:12.806Z,21.50
2023-01-20T05:47:40.838Z,20.53
2023-01-20T05:50:09.579Z,21.87
2023-01-20T05:52:37.452Z,22.23
2023-01-20T05:55:05.910Z,22.47
2023-01-20T05:57:33.812Z,21.67
2023-01-20T06:00:01.634Z,24.13
2023-01-20T06:02:33.014Z,22.60
2023-01-20T06:05:01.612Z,23.23
2023-01-20T06:07:29.689Z,22.83
2023-01-20T06:09:58.000Z,22.63
2023-01-20T06:12:26.056Z,22.40
2023-01-20T06:14:53.843Z,24.87
2023-01-20T06:17:21.931Z,24.93
2023-01-20T06:19:51.289Z,25.13
2023-01-20T06:22:21.650Z,22.83
2023-01-20T06:24:51.796Z,22.67
2023-01-20T06:27:20.028Z,23.50
2023-01-20T06:29:51.607Z,22.73
2023-01-20T06:32:19.777Z,25.23
2023-01-20T06:34:47.855Z,22.23
2023-01-20T06:37:17.556Z,23.47
2023-01-20T06:39:45.331Z,22.33
2023-01-20T06:42:13.531Z,20.53
2023-01-20T06:44:41.384Z,21.07
2023-01-20T06:47:09.412Z,19.47
2023-01-20T06:49:37.260Z,19.10
2023-01-20T06:52:05.181Z,17.47
2023-01-20T06:54:34.382Z,16.50
2023-01-20T06:57:02.171Z,16.30
2023-01-20T06:59:29.997Z,17.47
2023-01-20T07:01:57.879Z,18.67
2023-01-20T07:04:25.819Z,18.07
2023-01-20T07:06:53.640Z,18.90
2023-01-20T07:09:21.992Z,19.03
2023-01-20T07:11:51.475Z,19.33
2023-01-20T07:14:19.552Z,19.73
2023-01-20T07:16:47.815Z,18.07
2023-01-20T07:19:15.731Z,19.03
2023-01-20T07:21:43.685Z,19.17
2023-01-20T07:24:14.656Z,20.37
2023-01-20T07:26:42.506Z,20.10
2023-01-20T07:29:11.752Z,20.67
2023-01-20T07:31:40.316Z,19.03
2023-01-20T07:34:08.188Z,22.00
2023-01-20T07:36:35.987Z,21.03
2023-01-20T07:39:03.766Z,20.43
2023-01-20T07:41:31.567Z,20.83
2023-01-20T07:43:59.332Z,20.83
2023-01-20T07:46:28.537Z,21.40
2023-01-20T07:48:57.278Z,21.43
2023-01-20T07:51:25.103Z,20.63
2023-01-20T07:53:52.986Z,18.97
2023-01-20T07:56:22.891Z,19.53
2023-01-20T07:58:51.726Z,19.47
2023-01-20T08:01:22.180Z,19.27
2023-01-20T08:03:54.454Z,19.80
2023-01-20T08:06:24.751Z,21.37
2023-01-20T08:08:53.145Z,19.63
2023-01-20T08:11:21.960Z,20.13
2023-01-20T08:13:52.461Z,21.47
2023-01-20T08:16:21.043Z,19.77
2023-01-20T08:18:50.837Z,21.00
2023-01-20T08:21:20.949Z,22.23
2023-01-20T08:23:49.737Z,19.90
2023-01-20T08:26:19.265Z,20.53
2023-01-20T08:28:47.836Z,19.40
2023-01-20T08:31:18.396Z,18.57
2023-01-20T08:33:47.707Z,18.40
2023-01-20T08:36:19.283Z,19.60
2023-01-20T08:38:47.952Z,19.37
2023-01-20T08:41:18.539Z,20.30
2023-01-20T08:43:48.593Z,18.53
2023-01-20T08:46:18.841Z,18.03
2023-01-20T08:48:47.894Z,19.27
2023-01-20T08:51:19.264Z,17.40
2023-01-20T08:53:47.624Z,18.50
2023-01-20T08:56:16.508Z,18.80
2023-01-20T08:58:44.806Z,18.10
2023-01-20T09:01:13.896Z,17.47
2023-01-20T09:03:45.076Z,17.67
2023-01-20T09:06:22.997Z,16.87
2023-01-20T09:08:55.031Z,17.20
2023-01-20T09:11:26.452Z,16.83
2023-01-20T09:13:56.046Z,15.97
2023-01-20T09:16:25.194Z,17.23
2023-01-20T09:18:53.478Z,17.03
2023-01-20T09:21:23.782Z,16.93
2023-01-20T09:23:52.708Z,16.20
2023-01-20T09:26:34.881Z,16.30
2023-01-20T09:29:10.352Z,15.93
2023-01-20T09:31:39.348Z,14.57
2023-01-20T09:34:07.645Z,16.13
2023-01-20T09:36:36.782Z,15.20
2023-01-20T09:39:22.490Z,15.57
2023-01-20T09:42:14.098Z,14.17
2023-01-20T09:44:48.881Z,15.03
2023-01-20T09:47:37.225Z,14.67
2023-01-20T09:50:35.957Z,14.50
2023-01-20T09:53:15.486Z,13.40
2023-01-20T09:55:48.856Z,13.37
2023-01-20T09:58:24.912Z,14.63
2023-01-20T10:00:58.308Z,14.13
2023-01-20T10:03:36.955Z,14.73
2023-01-20T10:06:13.911Z,15.27
2023-01-20T10:09:03.891Z,13.60
2023-01-20T10:11:38.065Z,13.67
2023-01-20T10:14:14.930Z,12.73
2023-01-20T10:16:49.857Z,13.97
2023-01-20T10:19:27.984Z,13.00
2023-01-20T10:22:03.731Z,12.37
2023-01-20T10:24:37.616Z,12.50
2023-01-20T10:27:06.279Z,13.57
2023-01-20T10:29:37.365Z,12.43
2023-01-20T10:32:13.343Z,12.27
2023-01-20T10:34:45.255Z,12.27
2023-01-20T10:37:15.251Z,12.00
2023-01-20T10:39:49.761Z,12.03
2023-01-20T10:42:18.927Z,11.67
2023-01-20T10:44:48.903Z,11.97
2023-01-20T10:47:24.760Z,12.83
2023-01-20T10:50:32.431Z,11.57
2023-01-20T10:53:21.048Z,12.77
2023-01-20T10:56:04.836Z,12.40
2023-01-20T10:58:35.202Z,11.13
2023-01-20T11:01:08.927Z,11.57
2023-01-20T11:03:40.574Z,11.93
2023-01-20T11:06:13.594Z,11.57
2023-01-20T11:08:44.214Z,12.30
2023-01-20T11:11:17.156Z,11.87
2023-01-20T11:13:45.069Z,11.87
2023-01-20T11:16:19.047Z,11.67
2023-01-20T11:18:57.278Z,11.33
2023-01-20T11:21:26.318Z,13.40
2023-01-20T11:23:56.757Z,12.23
2023-01-20T11:26:28.374Z,13.20
2023-01-20T11:28:58.102Z,11.90
2023-01-20T11:31:38.281Z,11.93
2023-01-20T11:34:22.456Z,12.27
2023-01-20T11:36:51.757Z,12.80
2023-01-20T11:39:28.312Z,11.67
2023-01-20T12:50:05.360Z,12.27
2023-01-20T12:52:47.387Z,12.63
2023-01-20T12:55:40.433Z,12.50
2023-01-20T12:58:18.439Z,11.93
2023-01-20T13:01:25.480Z,12.00
2023-01-20T13:04:26.848Z,12.10
2023-01-20T13:07:17.652Z,13.13
2023-01-20T13:10:07.280Z,12.33
2023-01-20T13:12:44.613Z,12.43
2023-01-20T13:15:22.106Z,12.60
2023-01-20T13:18:06.717Z,11.67
2023-01-20T13:20:36.294Z,11.67
2023-01-20T13:23:11.866Z,13.20
2023-01-20T13:25:41.746Z,12.37
2023-01-20T13:28:17.005Z,12.50
2023-01-20T13:30:47.958Z,11.70
2023-01-20T13:33:19.357Z,12.10
2023-01-20T13:35:50.882Z,11.93
2023-01-20T13:38:23.224Z,11.87
2023-01-20T13:40:54.589Z,11.37
2023-01-20T13:43:50.512Z,11.47
2023-01-20T13:46:38.650Z,10.63
2023-01-20T13:49:30.765Z,11.37
2023-01-20T13:51:58.868Z,10.70
2023-01-20T13:54:47.910Z,11.30
2023-01-20T13:57:35.760Z,10.13
2023-01-20T14:00:14.068Z,10.90
2023-01-20T14:02:42.002Z,10.60
2023-01-20T14:05:28.742Z,10.70
2023-01-20T14:07:57.636Z,11.07
2023-01-20T14:10:27.452Z,11.33
2023-01-20T14:12:55.393Z,10.67
2023-01-20T14:15:36.502Z,12.00
2023-01-20T14:18:05.359Z,10.83
2023-01-20T14:20:33.292Z,11.27
2023-01-20T14:23:27.327Z,11.70
2023-01-20T14:26:01.873Z,10.70
2023-01-20T14:28:30.089Z,9.97
2023-01-20T14:31:35.397Z,11.13
2023-01-20T14:34:21.536Z,10.67
2023-01-20T14:36:53.092Z,11.30
2023-01-20T14:39:24.530Z,11.13
2023-01-20T14:41:55.318Z,11.13
2023-01-20T14:44:25.668Z,11.33
2023-01-20T14:46:55.093Z,11.43
2023-01-20T14:49:29.572Z,11.03
2023-01-20T14:51:58.196Z,11.30
2023-01-20T14:54:42.368Z,10.57
2023-01-20T14:57:22.468Z,9.40
2023-01-20T15:00:02.814Z,9.63
2023-01-20T15:02:32.997Z,9.77
2023-01-20T15:05:01.107Z,9.80
2023-01-20T15:07:29.077Z,10.10
2023-01-20T15:10:02.538Z,9.73
2023-01-20T15:12:53.646Z,10.17
2023-01-20T15:15:27.661Z,10.60
2023-01-20T15:18:21.999Z,10.70
2023-01-20T15:21:00.888Z,9.97
2023-01-20T15:23:38.257Z,9.50
2023-01-20T15:26:10.699Z,10.03
2023-01-20T15:28:45.153Z,10.40
2023-01-20T15:31:15.095Z,9.00
2023-01-20T15:33:44.123Z,10.20
2023-01-20T15:36:24.740Z,9.67
2023-01-20T15:38:52.973Z,9.60
2023-01-20T15:41:22.596Z,10.17
2023-01-20T15:43:52.645Z,9.33
2023-01-20T15:46:21.633Z,9.67
2023-01-20T15:48:49.895Z,9.73
2023-01-20T15:51:19.494Z,9.53
2023-01-20T15:53:48.838Z,8.93
2023-01-20T15:56:22.121Z,9.27
2023-01-20T15:58:52.217Z,8.83
2023-01-20T16:01:23.833Z,10.17
2023-01-20T16:03:53.064Z,9.90
2023-01-20T16:06:22.280Z,9.67
2023-01-20T16:08:50.957Z,9.77
2023-01-20T16:11:23.643Z,9.80
2023-01-20T16:13:53.592Z,10.40
2023-01-20T16:16:28.733Z,10.30
2023-01-20T16:18:57.374Z,10.20
2023-01-20T16:21:25.408Z,9.20
2023-01-20T16:23:53.400Z,10.80
2023-01-20T16:26:23.352Z,10.67
2023-01-20T16:28:54.440Z,10.87
2023-01-20T16:31:24.611Z,10.23
2023-01-20T16:33:54.234Z,11.10
2023-01-20T16:36:26.214Z,10.47
2023-01-20T16:38:55.216Z,10.70
2023-01-20T16:41:26.468Z,9.70
2023-01-20T16:43:57.007Z,9.60
2023-01-20T16:46:26.452Z,10.10
2023-01-20T16:48:59.227Z,9.27
2023-01-20T16:51:28.102Z,11.23
2023-01-20T16:53:56.919Z,10.43
2023-01-20T16:56:28.056Z,11.10
2023-01-20T16:58:59.132Z,11.23
2023-01-20T17:01:27.554Z,12.33
2023-01-20T17:03:57.390Z,11.67
2023-01-20T17:06:27.009Z,10.80
2023-01-20T17:08:56.138Z,10.57
2023-01-20T17:11:26.259Z,11.13
2023-01-20T17:13:54.958Z,11.37
2023-01-20T17:16:25.992Z,12.03
2023-01-20T17:18:56.192Z,11.53
2023-01-20T17:21:25.227Z,11.23
2023-01-20T17:23:55.072Z,12.23
2023-01-20T17:26:24.287Z,11.50
2023-01-20T17:28:55.570Z,13.53
2023-01-20T17:31:25.819Z,13.53
2023-01-20T17:33:53.852Z,13.57
2023-01-20T17:36:22.992Z,12.63
2023-01-20T17:38:51.774Z,12.53
2023-01-20T17:41:19.944Z,13.00
2023-01-20T17:43:48.002Z,13.43
2023-01-20T17:46:17.630Z,13.83
2023-01-20T17:48:48.561Z,14.50
2023-01-20T17:51:18.781Z,15.90
2023-01-20T17:53:46.921Z,17.30
2023-01-20T17:56:15.644Z,17.50
2023-01-20T17:58:44.897Z,17.63
2023-01-20T18:01:14.611Z,18.20
2023-01-20T18:03:43.564Z,17.27
2023-01-20T18:06:14.736Z,17.47
2023-01-20T18:08:42.996Z,16.90
2023-01-20T18:11:12.384Z,18.20
2023-01-20T18:13:40.223Z,18.03
2023-01-20T18:16:11.153Z,17.60
2023-01-20T18:18:39.197Z,19.10
2023-01-20T18:21:13.562Z,18.23
2023-01-20T18:23:42.194Z,19.53
2023-01-20T18:26:11.825Z,21.73
2023-01-20T18:28:39.697Z,20.10
2023-01-20T18:31:10.492Z,20.53
2023-01-20T18:33:43.455Z,29.40
2023-01-20T18:36:15.121Z,22.77
2023-01-20T18:38:44.013Z,20.03
2023-01-20T18:41:12.780Z,20.40
2023-01-20T18:43:41.488Z,21.40
2023-01-20T18:46:10.249Z,20.37
2023-01-20T18:48:39.642Z,19.97
2023-01-20T18:51:10.234Z,20.43
2023-01-20T18:53:39.489Z,19.90
2023-01-20T18:56:09.546Z,19.73
2023-01-20T18:58:38.642Z,20.57
2023-01-20T19:01:08.558Z,20.83
2023-01-20T19:03:37.712Z,20.13
2023-01-20T19:06:06.624Z,20.00
2023-01-20T19:08:34.732Z,19.87
2023-01-20T19:11:06.801Z,20.63
2023-01-20T19:13:34.711Z,20.27
2023-01-20T19:16:02.997Z,19.30
2023-01-20T19:18:30.847Z,21.13
2023-01-20T19:21:04.948Z,19.80
2023-01-20T19:23:33.088Z,21.33
2023-01-20T19:26:03.425Z,20.03
2023-01-20T19:28:31.428Z,19.47
2023-01-20T19:31:06.207Z,19.07
2023-01-20T19:33:34.428Z,20.40
2023-01-20T19:36:03.657Z,19.73
2023-01-20T19:38:31.553Z,21.77
2023-01-20T19:41:07.261Z,20.83
2023-01-20T19:43:35.460Z,19.20
2023-01-20T19:46:03.576Z,19.70
2023-01-20T19:48:32.436Z,20.07
2023-01-20T19:51:04.509Z,20.17
2023-01-20T19:53:32.629Z,20.07
2023-01-20T19:56:04.610Z,20.10
2023-01-20T19:58:34.096Z,20.10
2023-01-20T20:01:08.520Z,20.83
2023-01-20T20:03:36.759Z,19.93
2023-01-20T20:06:06.345Z,21.40
2023-01-20T20:08:36.165Z,22.70
2023-01-20T20:11:04.359Z,21.87
2023-01-20T20:13:33.595Z,20.10
2023-01-20T20:16:02.253Z,21.03
2023-01-20T20:18:30.329Z,21.43
2023-01-20T20:20:58.511Z,20.97
2023-01-20T20:23:26.901Z,19.57
2023-01-20T20:25:56.537Z,18.40
2023-01-20T20:28:24.852Z,18.97
2023-01-20T20:30:55.939Z,19.93
2023-01-20T20:33:24.334Z,21.90
2023-01-20T20:35:53.044Z,20.73
2023-01-20T20:38:21.877Z,19.87
2023-01-20T20:40:50.534Z,19.83
2023-01-20T20:43:22.893Z,19.80
2023-01-20T20:45:51.373Z,19.80
2023-01-20T20:48:20.837Z,19.70
2023-01-20T20:50:51.325Z,19.30
2023-01-20T20:53:19.145Z,19.63
2023-01-20T20:55:47.153Z,18.33
2023-01-20T20:58:15.204Z,20.13
2023-01-20T21:00:43.056Z,19.10
2023-01-20T21:03:11.496Z,22.20
2023-01-20T21:05:40.680Z,19.03
2023-01-20T21:08:08.540Z,18.60
2023-01-20T21:10:36.348Z,19.27
2023-01-20T21:13:07.128Z,19.00
2023-01-20T21:15:35.209Z,19.90
2023-01-20T21:18:03.146Z,19.03
2023-01-20T21:20:32.512Z,19.73
2023-01-20T21:23:03.359Z,18.43
2023-01-20T21:25:32.845Z,18.10
2023-01-20T21:28:00.707Z,19.20
2023-01-20T21:30:28.709Z,20.10
2023-01-20T21:32:56.631Z,20.10
2023-01-20T21:35:24.706Z,18.50
2023-01-20T21:37:53.139Z,18.40
2023-01-20T21:40:23.028Z,18.97
2023-01-20T21:42:54.562Z,20.93
2023-01-20T21:45:22.699Z,18.40
2023-01-20T21:47:51.261Z,19.27
2023-01-20T21:50:36.835Z,19.43
2023-01-20T21:53:04.692Z,19.00
2023-01-20T21:55:33.856Z,21.13
2023-01-20T21:58:01.696Z,19.87
2023-01-20T22:00:29.592Z,19.30
2023-01-20T22:02:57.576Z,20.50
2023-01-20T22:05:25.412Z,19.13
2023-01-20T22:07:53.393Z,20.30
2023-01-20T22:10:21.998Z,20.20
2023-01-20T22:12:52.004Z,19.00
2023-01-20T22:15:20.189Z,19.73
2023-01-20T22:17:49.921Z,20.27
2023-01-20T22:20:18.762Z,19.77
2023-01-20T22:22:47.027Z,20.23
2023-01-20T22:25:15.377Z,21.77
2023-01-20T22:27:43.200Z,20.23
2023-01-20T22:30:13.540Z,22.80
2023-01-20T22:32:41.349Z,21.90
2023-01-20T22:35:09.715Z,20.13
2023-01-20T22:37:37.574Z,20.10
2023-01-20T22:40:06.170Z,19.97
2023-01-20T22:42:34.699Z,20.30
2023-01-20T22:45:02.697Z,20.40
2023-01-20T22:47:31.926Z,19.10
2023-01-20T22:49:59.743Z,20.10
2023-01-20T22:52:27.570Z,19.53
2023-01-20T22:54:55.492Z,20.70
2023-01-20T22:57:23.779Z,20.93
2023-01-20T22:59:52.847Z,20.83
2023-01-20T23:02:21.065Z,21.77
2023-01-20T23:04:52.372Z,21.43
2023-01-20T23:07:22.578Z,21.20
2023-01-20T23:09:51.345Z,22.70
2023-01-20T23:12:19.208Z,22.40
2023-01-20T23:15:02.742Z,21.27
2023-01-20T23:17:32.275Z,21.77
2023-01-20T23:20:01.661Z,24.07
2023-01-20T23:22:29.968Z,21.77
2023-01-20T23:24:57.822Z,21.13
2023-01-20T23:27:25.700Z,22.23
2023-01-20T23:29:55.721Z,22.60
2023-01-20T23:32:23.854Z,22.10
2023-01-20T23:34:52.382Z,21.40
2023-01-20T23:37:21.967Z,21.20
2023-01-20T23:39:52.240Z,23.10
2023-01-20T23:42:21.765Z,22.90
2023-01-20T23:44:49.804Z,21.33
2023-01-20T23:47:17.698Z,23.00
2023-01-20T23:49:45.556Z,23.13
2023-01-20T23:52:13.547Z,22.90
2023-01-20T23:54:42.786Z,22.93
2023-01-20T23:57:10.619Z,22.03
2023-01-20T23:59:39.348Z,20.97
